sensor_id;sensor_type;location;lat;lon;timestamp;P1;durP1;ratioP1;P2;durP2;ratioP2
52692;SDS011;68218;51.012;-1.648;2023-03-01T00:00:26;11.80;;;4.40;;
52692;SDS011;68218;51.012;-1.648;2023-03-01T00:05:16;12.90;;;3.78;;
52692;SDS011;68218;51.012;-1.648;2023-03-01T00:07:42;9.23;;;3.40;;
52692;SDS011;68218;51.012;-1.648;2023-03-01T00:12:33;15.63;;;5.10;;
52692;SDS011;68218;51.012;-1.648;2023-03-01T00:14:58;10.85;;;3.95;;
52692;SDS011;68218;51.012;-1.648;2023-03-01T00:17:24;10.95;;;3.67;;
52692;SDS011;68218;51.012;-1.648;2023-03-01T00:22:14;10.65;;;3.75;;
52692;SDS011;68218;51.012;-1.648;2023-03-01T00:24:40;11.43;;;4.07;;
52692;SDS011;68218;51.012;-1.648;2023-03-01T00:27:05;8.10;;;3.58;;
52692;SDS011;68218;51.012;-1.648;2023-03-01T00:31:56;10.40;;;3.50;;
52692;SDS011;68218;51.012;-1.648;2023-03-01T00:34:21;13.18;;;3.95;;
52692;SDS011;68218;51.012;-1.648;2023-03-01T00:36:47;10.60;;;3.90;;
52692;SDS011;68218;51.012;-1.648;2023-03-01T00:39:13;8.73;;;3.15;;
52692;SDS011;68218;51.012;-1.648;2023-03-01T00:41:39;11.00;;;4.20;;
52692;SDS011;68218;51.012;-1.648;2023-03-01T00:46:31;11.30;;;3.67;;
52692;SDS011;68218;51.012;-1.648;2023-03-01T00:48:56;11.32;;;4.10;;
52692;SDS011;68218;51.012;-1.648;2023-03-01T00:51:23;12.88;;;4.18;;
52692;SDS011;68218;51.012;-1.648;2023-03-01T00:53:51;13.07;;;4.30;;
52692;SDS011;68218;51.012;-1.648;2023-03-01T00:56:18;10.07;;;3.63;;
52692;SDS011;68218;51.012;-1.648;2023-03-01T00:58:44;10.82;;;3.80;;
52692;SDS011;68218;51.012;-1.648;2023-03-01T01:03:52;16.63;;;4.85;;
52692;SDS011;68218;51.012;-1.648;2023-03-01T01:06:20;11.25;;;3.80;;
52692;SDS011;68218;51.012;-1.648;2023-03-01T01:08:48;15.38;;;3.85;;
52692;SDS011;68218;51.012;-1.648;2023-03-01T01:11:14;12.10;;;4.43;;
52692;SDS011;68218;51.012;-1.648;2023-03-01T01:13:40;12.63;;;4.65;;
52692;SDS011;68218;51.012;-1.648;2023-03-01T01:18:32;18.55;;;10.27;;
52692;SDS011;68218;51.012;-1.648;2023-03-01T01:20:57;19.90;;;10.75;;
52692;SDS011;68218;51.012;-1.648;2023-03-01T01:23:28;24.48;;;11.55;;
52692;SDS011;68218;51.012;-1.648;2023-03-01T01:25:53;25.73;;;12.40;;
52692;SDS011;68218;51.012;-1.648;2023-03-01T01:30:44;24.95;;;12.95;;
52692;SDS011;68218;51.012;-1.648;2023-03-01T01:35:34;22.50;;;11.63;;
52692;SDS011;68218;51.012;-1.648;2023-03-01T01:38:00;24.08;;;12.57;;
52692;SDS011;68218;51.012;-1.648;2023-03-01T01:40:25;23.30;;;12.38;;
52692;SDS011;68218;51.012;-1.648;2023-03-01T01:42:50;20.80;;;11.07;;
52692;SDS011;68218;51.012;-1.648;2023-03-01T01:47:58;22.27;;;11.20;;
52692;SDS011;68218;51.012;-1.648;2023-03-01T01:50:27;20.13;;;9.93;;
52692;SDS011;68218;51.012;-1.648;2023-03-01T01:53:02;19.00;;;8.75;;
52692;SDS011;68218;51.012;-1.648;2023-03-01T01:55:31;16.50;;;8.18;;
52692;SDS011;68218;51.012;-1.648;2023-03-01T01:57:58;13.40;;;5.85;;
52692;SDS011;68218;51.012;-1.648;2023-03-01T02:00:29;13.30;;;5.65;;
52692;SDS011;68218;51.012;-1.648;2023-03-01T02:02:55;13.63;;;5.22;;
52692;SDS011;68218;51.012;-1.648;2023-03-01T02:07:59;14.18;;;5.18;;
52692;SDS011;68218;51.012;-1.648;2023-03-01T02:10:24;11.30;;;4.75;;
52692;SDS011;68218;51.012;-1.648;2023-03-01T02:12:51;11.63;;;5.30;;
52692;SDS011;68218;51.012;-1.648;2023-03-01T02:15:17;14.40;;;5.75;;
52692;SDS011;68218;51.012;-1.648;2023-03-01T02:20:12;19.42;;;10.50;;
52692;SDS011;68218;51.012;-1.648;2023-03-01T02:22:40;23.95;;;10.38;;
52692;SDS011;68218;51.012;-1.648;2023-03-01T02:27:59;25.80;;;11.52;;
52692;SDS011;68218;51.012;-1.648;2023-03-01T02:30:29;20.42;;;10.63;;
52692;SDS011;68218;51.012;-1.648;2023-03-01T02:32:56;22.77;;;12.23;;
52692;SDS011;68218;51.012;-1.648;2023-03-01T02:35:28;22.98;;;11.73;;
52692;SDS011;68218;51.012;-1.648;2023-03-01T02:37:59;23.25;;;11.48;;
52692;SDS011;68218;51.012;-1.648;2023-03-01T02:40:27;20.85;;;12.05;;
52692;SDS011;68218;51.012;-1.648;2023-03-01T02:42:55;22.15;;;11.68;;
52692;SDS011;68218;51.012;-1.648;2023-03-01T02:45:22;24.25;;;12.43;;
52692;SDS011;68218;51.012;-1.648;2023-03-01T02:52:53;20.38;;;9.93;;
52692;SDS011;68218;51.012;-1.648;2023-03-01T02:55:35;20.05;;;7.28;;
52692;SDS011;68218;51.012;-1.648;2023-03-01T02:58:02;13.25;;;5.90;;
52692;SDS011;68218;51.012;-1.648;2023-03-01T03:00:33;14.57;;;5.75;;
52692;SDS011;68218;51.012;-1.648;2023-03-01T03:03:04;12.48;;;5.75;;
52692;SDS011;68218;51.012;-1.648;2023-03-01T03:05:31;13.05;;;6.07;;
52692;SDS011;68218;51.012;-1.648;2023-03-01T03:07:58;15.70;;;6.85;;
52692;SDS011;68218;51.012;-1.648;2023-03-01T03:10:30;16.58;;;7.68;;
52692;SDS011;68218;51.012;-1.648;2023-03-01T03:12:57;14.98;;;6.72;;
52692;SDS011;68218;51.012;-1.648;2023-03-01T03:15:28;14.45;;;6.50;;
52692;SDS011;68218;51.012;-1.648;2023-03-01T03:20:20;15.10;;;5.78;;
52692;SDS011;68218;51.012;-1.648;2023-03-01T03:22:49;12.18;;;5.80;;
52692;SDS011;68218;51.012;-1.648;2023-03-01T03:25:16;12.98;;;5.60;;
52692;SDS011;68218;51.012;-1.648;2023-03-01T03:27:43;12.90;;;5.75;;
52692;SDS011;68218;51.012;-1.648;2023-03-01T03:30:11;13.13;;;4.97;;
52692;SDS011;68218;51.012;-1.648;2023-03-01T03:32:39;11.82;;;4.75;;
52692;SDS011;68218;51.012;-1.648;2023-03-01T03:35:05;11.95;;;4.80;;
52692;SDS011;68218;51.012;-1.648;2023-03-01T03:37:43;11.95;;;5.85;;
52692;SDS011;68218;51.012;-1.648;2023-03-01T03:40:28;13.45;;;5.68;;
52692;SDS011;68218;51.012;-1.648;2023-03-01T03:43:02;12.13;;;5.30;;
52692;SDS011;68218;51.012;-1.648;2023-03-01T03:45:32;12.57;;;5.82;;
52692;SDS011;68218;51.012;-1.648;2023-03-01T03:47:58;12.90;;;5.57;;
52692;SDS011;68218;51.012;-1.648;2023-03-01T03:50:25;12.85;;;5.65;;
52692;SDS011;68218;51.012;-1.648;2023-03-01T03:52:50;13.38;;;5.88;;
52692;SDS011;68218;51.012;-1.648;2023-03-01T03:55:16;16.73;;;6.35;;
52692;SDS011;68218;51.012;-1.648;2023-03-01T03:57:44;12.50;;;5.20;;
52692;SDS011;68218;51.012;-1.648;2023-03-01T04:00:16;13.63;;;5.93;;
52692;SDS011;68218;51.012;-1.648;2023-03-01T04:02:44;11.93;;;5.18;;
52692;SDS011;68218;51.012;-1.648;2023-03-01T04:05:11;11.77;;;5.60;;
52692;SDS011;68218;51.012;-1.648;2023-03-01T04:07:39;12.35;;;5.25;;
52692;SDS011;68218;51.012;-1.648;2023-03-01T04:10:06;12.50;;;5.25;;
52692;SDS011;68218;51.012;-1.648;2023-03-01T04:12:34;11.43;;;4.97;;
52692;SDS011;68218;51.012;-1.648;2023-03-01T04:15:00;13.20;;;5.07;;
52692;SDS011;68218;51.012;-1.648;2023-03-01T04:17:26;12.95;;;5.38;;
52692;SDS011;68218;51.012;-1.648;2023-03-01T04:19:52;12.30;;;4.80;;
52692;SDS011;68218;51.012;-1.648;2023-03-01T04:22:18;11.23;;;4.47;;
52692;SDS011;68218;51.012;-1.648;2023-03-01T04:24:44;12.85;;;4.85;;
52692;SDS011;68218;51.012;-1.648;2023-03-01T04:27:10;11.02;;;4.47;;
52692;SDS011;68218;51.012;-1.648;2023-03-01T04:29:36;13.25;;;4.88;;
52692;SDS011;68218;51.012;-1.648;2023-03-01T04:32:02;14.35;;;5.10;;
52692;SDS011;68218;51.012;-1.648;2023-03-01T04:36:54;11.75;;;4.72;;
52692;SDS011;68218;51.012;-1.648;2023-03-01T04:39:19;13.68;;;5.30;;
52692;SDS011;68218;51.012;-1.648;2023-03-01T04:41:45;11.00;;;4.68;;
52692;SDS011;68218;51.012;-1.648;2023-03-01T04:44:11;17.77;;;5.32;;
52692;SDS011;68218;51.012;-1.648;2023-03-01T04:46:36;12.85;;;5.20;;
52692;SDS011;68218;51.012;-1.648;2023-03-01T04:49:02;15.50;;;4.53;;
52692;SDS011;68218;51.012;-1.648;2023-03-01T04:51:28;12.52;;;4.75;;
52692;SDS011;68218;51.012;-1.648;2023-03-01T04:53:54;12.57;;;4.85;;
52692;SDS011;68218;51.012;-1.648;2023-03-01T04:56:19;13.10;;;4.72;;
52692;SDS011;68218;51.012;-1.648;2023-03-01T04:58:47;12.50;;;4.63;;
52692;SDS011;68218;51.012;-1.648;2023-03-01T05:03:44;10.95;;;4.43;;
52692;SDS011;68218;51.012;-1.648;2023-03-01T05:06:11;12.90;;;4.90;;
52692;SDS011;68218;51.012;-1.648;2023-03-01T05:08:38;10.10;;;4.22;;
52692;SDS011;68218;51.012;-1.648;2023-03-01T05:11:04;14.43;;;5.07;;
52692;SDS011;68218;51.012;-1.648;2023-03-01T05:13:30;12.98;;;4.70;;
52692;SDS011;68218;51.012;-1.648;2023-03-01T05:15:57;10.10;;;4.28;;
52692;SDS011;68218;51.012;-1.648;2023-03-01T05:18:24;12.32;;;4.78;;
52692;SDS011;68218;51.012;-1.648;2023-03-01T05:20:54;12.00;;;5.03;;
52692;SDS011;68218;51.012;-1.648;2023-03-01T05:23:23;11.73;;;4.85;;
52692;SDS011;68218;51.012;-1.648;2023-03-01T05:25:50;11.50;;;4.53;;
52692;SDS011;68218;51.012;-1.648;2023-03-01T05:28:17;11.68;;;4.82;;
52692;SDS011;68218;51.012;-1.648;2023-03-01T05:30:45;12.25;;;5.10;;
52692;SDS011;68218;51.012;-1.648;2023-03-01T05:33:11;12.40;;;4.93;;
52692;SDS011;68218;51.012;-1.648;2023-03-01T05:35:43;12.35;;;4.95;;
52692;SDS011;68218;51.012;-1.648;2023-03-01T05:38:10;14.15;;;5.53;;
52692;SDS011;68218;51.012;-1.648;2023-03-01T05:40:39;12.65;;;5.35;;
52692;SDS011;68218;51.012;-1.648;2023-03-01T05:43:06;14.45;;;5.57;;
52692;SDS011;68218;51.012;-1.648;2023-03-01T05:45:32;14.30;;;5.55;;
52692;SDS011;68218;51.012;-1.648;2023-03-01T05:48:00;13.57;;;5.40;;
52692;SDS011;68218;51.012;-1.648;2023-03-01T05:50:26;13.02;;;5.53;;
52692;SDS011;68218;51.012;-1.648;2023-03-01T05:53:00;14.55;;;5.75;;
52692;SDS011;68218;51.012;-1.648;2023-03-01T05:55:28;13.75;;;5.10;;
52692;SDS011;68218;51.012;-1.648;2023-03-01T05:57:55;13.23;;;5.30;;
52692;SDS011;68218;51.012;-1.648;2023-03-01T06:00:24;14.60;;;5.93;;
52692;SDS011;68218;51.012;-1.648;2023-03-01T06:02:49;13.60;;;5.03;;
52692;SDS011;68218;51.012;-1.648;2023-03-01T06:05:16;12.10;;;5.25;;
52692;SDS011;68218;51.012;-1.648;2023-03-01T06:10:09;14.13;;;5.32;;
52692;SDS011;68218;51.012;-1.648;2023-03-01T06:12:36;13.13;;;5.55;;
52692;SDS011;68218;51.012;-1.648;2023-03-01T06:15:03;15.63;;;5.30;;
52692;SDS011;68218;51.012;-1.648;2023-03-01T06:17:31;14.70;;;5.30;;
52692;SDS011;68218;51.012;-1.648;2023-03-01T06:20:02;14.13;;;5.82;;
52692;SDS011;68218;51.012;-1.648;2023-03-01T06:22:28;12.68;;;5.57;;
52692;SDS011;68218;51.012;-1.648;2023-03-01T06:24:54;16.13;;;5.30;;
52692;SDS011;68218;51.012;-1.648;2023-03-01T06:27:19;12.50;;;5.38;;
52692;SDS011;68218;51.012;-1.648;2023-03-01T06:29:44;12.63;;;5.07;;
52692;SDS011;68218;51.012;-1.648;2023-03-01T06:32:10;12.70;;;5.15;;
52692;SDS011;68218;51.012;-1.648;2023-03-01T06:34:35;13.55;;;5.05;;
52692;SDS011;68218;51.012;-1.648;2023-03-01T06:39:30;12.85;;;5.15;;
52692;SDS011;68218;51.012;-1.648;2023-03-01T06:41:55;14.55;;;5.30;;
52692;SDS011;68218;51.012;-1.648;2023-03-01T06:44:21;13.30;;;5.55;;
52692;SDS011;68218;51.012;-1.648;2023-03-01T06:46:46;13.18;;;5.43;;
52692;SDS011;68218;51.012;-1.648;2023-03-01T06:49:12;12.68;;;5.03;;
52692;SDS011;68218;51.012;-1.648;2023-03-01T06:51:37;12.38;;;5.18;;
52692;SDS011;68218;51.012;-1.648;2023-03-01T06:54:03;16.35;;;5.43;;
52692;SDS011;68218;51.012;-1.648;2023-03-01T06:56:29;14.40;;;5.60;;
52692;SDS011;68218;51.012;-1.648;2023-03-01T07:01:20;16.27;;;5.20;;
52692;SDS011;68218;51.012;-1.648;2023-03-01T07:03:46;13.52;;;6.07;;
52692;SDS011;68218;51.012;-1.648;2023-03-01T07:06:11;14.45;;;6.25;;
52692;SDS011;68218;51.012;-1.648;2023-03-01T07:08:36;14.15;;;5.75;;
52692;SDS011;68218;51.012;-1.648;2023-03-01T07:11:02;14.70;;;5.65;;
52692;SDS011;68218;51.012;-1.648;2023-03-01T07:13:28;16.77;;;7.20;;
52692;SDS011;68218;51.012;-1.648;2023-03-01T07:15:54;17.90;;;7.45;;
52692;SDS011;68218;51.012;-1.648;2023-03-01T07:18:19;17.05;;;6.93;;
52692;SDS011;68218;51.012;-1.648;2023-03-01T07:20:45;16.08;;;6.95;;
52692;SDS011;68218;51.012;-1.648;2023-03-01T07:23:10;22.63;;;9.23;;
52692;SDS011;68218;51.012;-1.648;2023-03-01T07:25:36;16.92;;;7.05;;
52692;SDS011;68218;51.012;-1.648;2023-03-01T07:28:01;17.25;;;7.20;;
52692;SDS011;68218;51.012;-1.648;2023-03-01T07:30:27;16.55;;;6.82;;
52692;SDS011;68218;51.012;-1.648;2023-03-01T07:32:53;12.25;;;4.75;;
52692;SDS011;68218;51.012;-1.648;2023-03-01T07:35:20;13.98;;;5.43;;
52692;SDS011;68218;51.012;-1.648;2023-03-01T07:40:11;15.70;;;6.60;;
52692;SDS011;68218;51.012;-1.648;2023-03-01T07:42:37;14.23;;;5.78;;
52692;SDS011;68218;51.012;-1.648;2023-03-01T07:45:03;13.40;;;5.30;;
52692;SDS011;68218;51.012;-1.648;2023-03-01T07:47:30;13.00;;;5.38;;
52692;SDS011;68218;51.012;-1.648;2023-03-01T07:49:56;15.07;;;4.53;;
52692;SDS011;68218;51.012;-1.648;2023-03-01T07:52:21;12.55;;;4.97;;
52692;SDS011;68218;51.012;-1.648;2023-03-01T07:54:46;11.48;;;4.40;;
52692;SDS011;68218;51.012;-1.648;2023-03-01T07:57:12;13.32;;;4.40;;
52692;SDS011;68218;51.012;-1.648;2023-03-01T07:59:37;13.93;;;4.80;;
52692;SDS011;68218;51.012;-1.648;2023-03-01T08:02:03;10.88;;;4.22;;
52692;SDS011;68218;51.012;-1.648;2023-03-01T08:04:28;13.75;;;4.53;;
52692;SDS011;68218;51.012;-1.648;2023-03-01T08:06:54;12.65;;;4.53;;
52692;SDS011;68218;51.012;-1.648;2023-03-01T08:09:20;12.35;;;3.97;;
52692;SDS011;68218;51.012;-1.648;2023-03-01T08:11:46;13.18;;;3.97;;
52692;SDS011;68218;51.012;-1.648;2023-03-01T08:14:11;11.25;;;4.25;;
52692;SDS011;68218;51.012;-1.648;2023-03-01T08:16:37;10.25;;;3.95;;
52692;SDS011;68218;51.012;-1.648;2023-03-01T08:21:31;11.25;;;3.78;;
52692;SDS011;68218;51.012;-1.648;2023-03-01T08:23:59;11.15;;;4.07;;
52692;SDS011;68218;51.012;-1.648;2023-03-01T08:28:50;14.18;;;3.85;;
52692;SDS011;68218;51.012;-1.648;2023-03-01T08:33:46;16.33;;;5.20;;
52692;SDS011;68218;51.012;-1.648;2023-03-01T08:36:15;14.65;;;4.13;;
52692;SDS011;68218;51.012;-1.648;2023-03-01T08:38:41;10.90;;;4.03;;
52692;SDS011;68218;51.012;-1.648;2023-03-01T08:41:07;12.82;;;3.85;;
52692;SDS011;68218;51.012;-1.648;2023-03-01T08:43:32;12.88;;;3.50;;
52692;SDS011;68218;51.012;-1.648;2023-03-01T08:45:58;11.40;;;3.35;;
52692;SDS011;68218;51.012;-1.648;2023-03-01T08:48:23;10.00;;;3.67;;
52692;SDS011;68218;51.012;-1.648;2023-03-01T08:50:50;10.85;;;3.67;;
52692;SDS011;68218;51.012;-1.648;2023-03-01T08:55:41;11.75;;;3.72;;
52692;SDS011;68218;51.012;-1.648;2023-03-01T08:58:06;13.18;;;3.88;;
52692;SDS011;68218;51.012;-1.648;2023-03-01T09:00:31;9.80;;;3.42;;
52692;SDS011;68218;51.012;-1.648;2023-03-01T09:02:59;17.48;;;4.07;;
52692;SDS011;68218;51.012;-1.648;2023-03-01T09:05:25;13.77;;;3.45;;
52692;SDS011;68218;51.012;-1.648;2023-03-01T09:07:50;10.57;;;3.28;;
52692;SDS011;68218;51.012;-1.648;2023-03-01T09:12:41;8.55;;;3.00;;
52692;SDS011;68218;51.012;-1.648;2023-03-01T09:15:06;12.85;;;3.20;;
52692;SDS011;68218;51.012;-1.648;2023-03-01T09:19:58;7.55;;;2.50;;
52692;SDS011;68218;51.012;-1.648;2023-03-01T09:22:24;9.85;;;2.75;;
52692;SDS011;68218;51.012;-1.648;2023-03-01T09:24:50;8.63;;;2.90;;
52692;SDS011;68218;51.012;-1.648;2023-03-01T09:27:15;10.68;;;2.95;;
52692;SDS011;68218;51.012;-1.648;2023-03-01T09:29:43;11.75;;;3.05;;
52692;SDS011;68218;51.012;-1.648;2023-03-01T09:32:09;8.00;;;2.60;;
52692;SDS011;68218;51.012;-1.648;2023-03-01T09:34:34;8.02;;;3.00;;
52692;SDS011;68218;51.012;-1.648;2023-03-01T09:37:20;8.48;;;2.80;;
52692;SDS011;68218;51.012;-1.648;2023-03-01T09:39:46;11.88;;;3.08;;
52692;SDS011;68218;51.012;-1.648;2023-03-01T09:42:11;14.95;;;4.05;;
52692;SDS011;68218;51.012;-1.648;2023-03-01T09:44:38;11.65;;;4.00;;
52692;SDS011;68218;51.012;-1.648;2023-03-01T09:47:12;9.52;;;2.80;;
52692;SDS011;68218;51.012;-1.648;2023-03-01T09:49:44;12.15;;;3.30;;
52692;SDS011;68218;51.012;-1.648;2023-03-01T09:52:21;11.38;;;3.40;;
52692;SDS011;68218;51.012;-1.648;2023-03-01T09:54:49;8.45;;;2.83;;
52692;SDS011;68218;51.012;-1.648;2023-03-01T09:57:23;19.67;;;3.42;;
52692;SDS011;68218;51.012;-1.648;2023-03-01T10:00:09;9.88;;;3.45;;
52692;SDS011;68218;51.012;-1.648;2023-03-01T10:10:38;9.73;;;2.30;;
52692;SDS011;68218;51.012;-1.648;2023-03-01T10:16:34;9.82;;;2.30;;
52692;SDS011;68218;51.012;-1.648;2023-03-01T10:19:10;6.07;;;1.88;;
52692;SDS011;68218;51.012;-1.648;2023-03-01T10:21:41;6.40;;;1.95;;
52692;SDS011;68218;51.012;-1.648;2023-03-01T10:24:11;4.13;;;1.70;;
52692;SDS011;68218;51.012;-1.648;2023-03-01T10:29:14;9.60;;;2.35;;
52692;SDS011;68218;51.012;-1.648;2023-03-01T10:31:43;5.55;;;2.00;;
52692;SDS011;68218;51.012;-1.648;2023-03-01T10:34:12;4.97;;;1.80;;
52692;SDS011;68218;51.012;-1.648;2023-03-01T10:36:40;5.72;;;1.90;;
52692;SDS011;68218;51.012;-1.648;2023-03-01T10:39:12;5.88;;;1.90;;
52692;SDS011;68218;51.012;-1.648;2023-03-01T10:41:44;7.28;;;2.38;;
52692;SDS011;68218;51.012;-1.648;2023-03-01T10:47:08;3.65;;;1.50;;
52692;SDS011;68218;51.012;-1.648;2023-03-01T10:49:42;4.72;;;1.73;;
52692;SDS011;68218;51.012;-1.648;2023-03-01T10:52:18;5.57;;;1.50;;
52692;SDS011;68218;51.012;-1.648;2023-03-01T10:54:57;6.13;;;2.08;;
52692;SDS011;68218;51.012;-1.648;2023-03-01T10:57:30;4.82;;;1.33;;
52692;SDS011;68218;51.012;-1.648;2023-03-01T11:00:13;3.00;;;1.25;;
52692;SDS011;68218;51.012;-1.648;2023-03-01T11:03:10;1.52;;;1.00;;
52692;SDS011;68218;51.012;-1.648;2023-03-01T11:05:36;6.90;;;1.90;;
52692;SDS011;68218;51.012;-1.648;2023-03-01T11:08:14;7.32;;;2.50;;
52692;SDS011;68218;51.012;-1.648;2023-03-01T11:13:09;3.13;;;1.40;;
52692;SDS011;68218;51.012;-1.648;2023-03-01T11:15:41;3.83;;;1.58;;
52692;SDS011;68218;51.012;-1.648;2023-03-01T11:18:22;4.90;;;1.35;;
52692;SDS011;68218;51.012;-1.648;2023-03-01T11:20:48;8.50;;;2.35;;
52692;SDS011;68218;51.012;-1.648;2023-03-01T11:23:18;3.33;;;1.40;;
52692;SDS011;68218;51.012;-1.648;2023-03-01T11:25:51;6.03;;;1.90;;
52692;SDS011;68218;51.012;-1.648;2023-03-01T11:28:20;3.00;;;1.50;;
52692;SDS011;68218;51.012;-1.648;2023-03-01T11:36:25;9.25;;;2.50;;
52692;SDS011;68218;51.012;-1.648;2023-03-01T11:38:53;9.65;;;2.10;;
52692;SDS011;68218;51.012;-1.648;2023-03-01T11:41:20;7.63;;;2.22;;
52692;SDS011;68218;51.012;-1.648;2023-03-01T11:52:01;7.32;;;2.28;;
52692;SDS011;68218;51.012;-1.648;2023-03-01T11:57:33;9.43;;;2.90;;
52692;SDS011;68218;51.012;-1.648;2023-03-01T12:27:21;8.35;;;2.70;;
52692;SDS011;68218;51.012;-1.648;2023-03-01T12:35:31;12.15;;;3.70;;
52692;SDS011;68218;51.012;-1.648;2023-03-01T12:51:20;10.35;;;2.88;;
52692;SDS011;68218;51.012;-1.648;2023-03-01T12:53:50;9.00;;;2.55;;
52692;SDS011;68218;51.012;-1.648;2023-03-01T12:56:31;8.52;;;2.58;;
52692;SDS011;68218;51.012;-1.648;2023-03-01T12:59:11;7.35;;;2.10;;
52692;SDS011;68218;51.012;-1.648;2023-03-01T13:17:48;5.13;;;1.95;;
52692;SDS011;68218;51.012;-1.648;2023-03-01T13:20:23;7.35;;;1.90;;
52692;SDS011;68218;51.012;-1.648;2023-03-01T13:23:23;9.13;;;1.98;;
52692;SDS011;68218;51.012;-1.648;2023-03-01T13:26:03;9.55;;;2.33;;
52692;SDS011;68218;51.012;-1.648;2023-03-01T13:33:43;8.73;;;2.50;;
52692;SDS011;68218;51.012;-1.648;2023-03-01T13:36:45;7.72;;;2.33;;
52692;SDS011;68218;51.012;-1.648;2023-03-01T13:39:01;5.72;;;2.10;;
52692;SDS011;68218;51.012;-1.648;2023-03-01T13:41:52;8.10;;;2.38;;
52692;SDS011;68218;51.012;-1.648;2023-03-01T13:44:37;8.90;;;2.55;;
52692;SDS011;68218;51.012;-1.648;2023-03-01T13:49:54;9.68;;;2.08;;
52692;SDS011;68218;51.012;-1.648;2023-03-01T13:54:53;5.90;;;1.98;;
52692;SDS011;68218;51.012;-1.648;2023-03-01T13:57:22;9.77;;;2.10;;
52692;SDS011;68218;51.012;-1.648;2023-03-01T13:59:53;4.88;;;1.85;;
52692;SDS011;68218;51.012;-1.648;2023-03-01T14:04:44;5.88;;;1.80;;
52692;SDS011;68218;51.012;-1.648;2023-03-01T14:07:22;15.32;;;2.65;;
52692;SDS011;68218;51.012;-1.648;2023-03-01T14:09:55;10.90;;;2.72;;
52692;SDS011;68218;51.012;-1.648;2023-03-01T14:15:17;14.75;;;5.72;;
52692;SDS011;68218;51.012;-1.648;2023-03-01T14:20:29;8.93;;;2.33;;
52692;SDS011;68218;51.012;-1.648;2023-03-01T14:22:58;9.88;;;2.70;;
52692;SDS011;68218;51.012;-1.648;2023-03-01T14:30:46;6.43;;;2.30;;
52692;SDS011;68218;51.012;-1.648;2023-03-01T14:33:19;8.10;;;2.30;;
52692;SDS011;68218;51.012;-1.648;2023-03-01T14:35:51;8.02;;;2.53;;
52692;SDS011;68218;51.012;-1.648;2023-03-01T14:40:57;10.00;;;3.17;;
52692;SDS011;68218;51.012;-1.648;2023-03-01T14:43:28;13.90;;;3.83;;
52692;SDS011;68218;51.012;-1.648;2023-03-01T14:45:55;9.88;;;2.80;;
52692;SDS011;68218;51.012;-1.648;2023-03-01T14:50:47;13.07;;;3.05;;
52692;SDS011;68218;51.012;-1.648;2023-03-01T14:53:17;11.85;;;2.33;;
52692;SDS011;68218;51.012;-1.648;2023-03-01T14:55:49;10.65;;;2.60;;
52692;SDS011;68218;51.012;-1.648;2023-03-01T14:58:19;7.47;;;2.20;;
52692;SDS011;68218;51.012;-1.648;2023-03-01T15:01:03;10.52;;;3.10;;
52692;SDS011;68218;51.012;-1.648;2023-03-01T15:03:33;9.02;;;2.80;;
52692;SDS011;68218;51.012;-1.648;2023-03-01T15:06:04;9.85;;;3.13;;
52692;SDS011;68218;51.012;-1.648;2023-03-01T15:08:31;11.55;;;3.42;;
52692;SDS011;68218;51.012;-1.648;2023-03-01T15:11:01;16.13;;;4.13;;
52692;SDS011;68218;51.012;-1.648;2023-03-01T15:13:47;11.05;;;2.60;;
52692;SDS011;68218;51.012;-1.648;2023-03-01T15:18:45;8.00;;;2.42;;
52692;SDS011;68218;51.012;-1.648;2023-03-01T15:26:06;8.20;;;2.53;;
52692;SDS011;68218;51.012;-1.648;2023-03-01T15:28:56;8.68;;;2.47;;
52692;SDS011;68218;51.012;-1.648;2023-03-01T15:31:28;9.30;;;2.75;;
52692;SDS011;68218;51.012;-1.648;2023-03-01T15:36:52;11.25;;;3.90;;
52692;SDS011;68218;51.012;-1.648;2023-03-01T15:41:58;9.15;;;2.60;;
52692;SDS011;68218;51.012;-1.648;2023-03-01T15:46:56;15.27;;;3.95;;
52692;SDS011;68218;51.012;-1.648;2023-03-01T15:52:06;9.90;;;2.90;;
52692;SDS011;68218;51.012;-1.648;2023-03-01T15:54:38;7.70;;;2.70;;
52692;SDS011;68218;51.012;-1.648;2023-03-01T15:57:07;11.18;;;3.63;;
52692;SDS011;68218;51.012;-1.648;2023-03-01T15:59:38;11.52;;;3.85;;
52692;SDS011;68218;51.012;-1.648;2023-03-01T16:04:34;12.13;;;2.78;;
52692;SDS011;68218;51.012;-1.648;2023-03-01T16:09:26;18.63;;;7.43;;
52692;SDS011;68218;51.012;-1.648;2023-03-01T16:14:17;9.93;;;3.25;;
52692;SDS011;68218;51.012;-1.648;2023-03-01T16:19:09;8.25;;;2.33;;
52692;SDS011;68218;51.012;-1.648;2023-03-01T16:24:00;6.28;;;2.25;;
52692;SDS011;68218;51.012;-1.648;2023-03-01T16:28:53;7.32;;;2.05;;
52692;SDS011;68218;51.012;-1.648;2023-03-01T16:31:21;7.30;;;2.70;;
52692;SDS011;68218;51.012;-1.648;2023-03-01T16:33:47;11.18;;;4.13;;
52692;SDS011;68218;51.012;-1.648;2023-03-01T16:36:14;9.55;;;3.95;;
52692;SDS011;68218;51.012;-1.648;2023-03-01T16:38:42;6.93;;;2.70;;
52692;SDS011;68218;51.012;-1.648;2023-03-01T16:43:37;6.97;;;2.50;;
52692;SDS011;68218;51.012;-1.648;2023-03-01T16:48:34;7.13;;;2.03;;
52692;SDS011;68218;51.012;-1.648;2023-03-01T16:53:26;8.63;;;2.50;;
52692;SDS011;68218;51.012;-1.648;2023-03-01T16:55:53;6.65;;;2.20;;
52692;SDS011;68218;51.012;-1.648;2023-03-01T16:58:22;10.68;;;3.47;;
52692;SDS011;68218;51.012;-1.648;2023-03-01T17:00:49;15.60;;;5.57;;
52692;SDS011;68218;51.012;-1.648;2023-03-01T17:03:23;29.08;;;10.75;;
52692;SDS011;68218;51.012;-1.648;2023-03-01T17:05:50;36.30;;;14.63;;
52692;SDS011;68218;51.012;-1.648;2023-03-01T17:10:42;39.38;;;15.38;;
52692;SDS011;68218;51.012;-1.648;2023-03-01T17:13:08;19.80;;;5.93;;
52692;SDS011;68218;51.012;-1.648;2023-03-01T17:15:37;25.70;;;10.90;;
52692;SDS011;68218;51.012;-1.648;2023-03-01T17:18:04;18.70;;;6.80;;
52692;SDS011;68218;51.012;-1.648;2023-03-01T17:22:55;47.20;;;18.92;;
52692;SDS011;68218;51.012;-1.648;2023-03-01T17:25:20;37.53;;;15.05;;
52692;SDS011;68218;51.012;-1.648;2023-03-01T17:27:45;22.63;;;11.65;;
52692;SDS011;68218;51.012;-1.648;2023-03-01T17:30:11;12.45;;;4.93;;
52692;SDS011;68218;51.012;-1.648;2023-03-01T17:32:38;7.15;;;2.15;;
52692;SDS011;68218;51.012;-1.648;2023-03-01T17:37:29;5.15;;;2.13;;
52692;SDS011;68218;51.012;-1.648;2023-03-01T17:42:20;11.07;;;4.05;;
52692;SDS011;68218;51.012;-1.648;2023-03-01T17:47:10;11.00;;;4.10;;
52692;SDS011;68218;51.012;-1.648;2023-03-01T17:49:36;8.38;;;2.65;;
52692;SDS011;68218;51.012;-1.648;2023-03-01T17:52:01;8.68;;;2.35;;
52692;SDS011;68218;51.012;-1.648;2023-03-01T17:56:52;9.52;;;2.72;;
52692;SDS011;68218;51.012;-1.648;2023-03-01T17:59:18;9.73;;;2.33;;
52692;SDS011;68218;51.012;-1.648;2023-03-01T18:04:09;8.40;;;1.80;;
52692;SDS011;68218;51.012;-1.648;2023-03-01T18:06:35;9.15;;;2.22;;
52692;SDS011;68218;51.012;-1.648;2023-03-01T18:11:26;11.45;;;2.47;;
52692;SDS011;68218;51.012;-1.648;2023-03-01T18:13:53;6.82;;;2.15;;
52692;SDS011;68218;51.012;-1.648;2023-03-01T18:16:19;12.73;;;3.88;;
52692;SDS011;68218;51.012;-1.648;2023-03-01T18:18:46;12.30;;;3.17;;
52692;SDS011;68218;51.012;-1.648;2023-03-01T18:23:38;10.63;;;2.90;;
52692;SDS011;68218;51.012;-1.648;2023-03-01T18:26:05;14.65;;;3.65;;
52692;SDS011;68218;51.012;-1.648;2023-03-01T18:28:32;8.63;;;2.47;;
52692;SDS011;68218;51.012;-1.648;2023-03-01T18:33:25;10.85;;;2.75;;
52692;SDS011;68218;51.012;-1.648;2023-03-01T18:38:16;11.93;;;3.40;;
52692;SDS011;68218;51.012;-1.648;2023-03-01T18:43:07;11.93;;;2.70;;
52692;SDS011;68218;51.012;-1.648;2023-03-01T18:45:33;4.40;;;1.63;;
52692;SDS011;68218;51.012;-1.648;2023-03-01T18:47:59;11.20;;;3.15;;
52692;SDS011;68218;51.012;-1.648;2023-03-01T18:52:49;12.43;;;3.20;;
52692;SDS011;68218;51.012;-1.648;2023-03-01T18:57:40;14.23;;;3.53;;
52692;SDS011;68218;51.012;-1.648;2023-03-01T19:00:06;9.43;;;2.70;;